Time;durP1;ratioP1;P1;durP2;ratioP2;P2;SDS_P1;SDS_P2;PMS_P1;PMS_P2;Temp;Humidity;BMP_temperature;BMP_pressure;BME280_temperature;BME280_humidity;BME280_pressure;Samples;Min_cycle;Max_cycle;Signal;HPM_P1;HPM_P2
2022/07/13 00:02:44;;;;;;;1.20;0.77;;;;;;;19.55;88.21;101888.69;6224976;28;20060;-78
2022/07/13 00:05:47;;;;;;;0.90;0.77;;;;;;;19.53;88.41;101887.97;6223714;28;20097;-76
2022/07/13 00:08:48;;;;;;;1.30;0.98;;;;;;;19.50;88.54;101880.19;6223306;28;20057;-78
2022/07/13 00:11:50;;;;;;;1.73;0.90;;;;;;;19.48;88.81;101877.66;6223181;28;20053;-77
2022/07/13 00:14:51;;;;;;;0.93;0.70;;;;;;;19.47;88.67;101875.06;6223494;28;20058;-78
2022/07/13 00:17:52;;;;;;;0.77;0.70;;;;;;;19.45;90.49;101864.53;6223663;28;20053;-77
2022/07/13 00:20:55;;;;;;;0.52;0.52;;;;;;;19.43;91.63;101866.44;6222807;28;20406;-77
2022/07/13 00:23:56;;;;;;;1.75;0.63;;;;;;;19.41;91.52;101872.88;6223622;28;20049;-77
2022/07/13 00:26:57;;;;;;;2.42;0.90;;;;;;;19.40;90.99;101865.84;6223611;28;20052;-76
2022/07/13 00:29:59;;;;;;;1.35;1.00;;;;;;;19.39;89.86;101856.09;6223656;28;20050;-77
2022/07/13 00:33:00;;;;;;;0.80;0.60;;;;;;;19.38;90.13;101857.09;6236512;28;20061;-77
2022/07/13 00:36:03;;;;;;;0.75;0.70;;;;;;;19.34;90.71;101850.25;6248236;28;20061;-77
2022/07/13 00:39:04;;;;;;;0.63;0.60;;;;;;;19.33;89.92;101857.41;6247986;28;20061;-78
2022/07/13 00:42:06;;;;;;;0.60;0.60;;;;;;;19.31;89.93;101848.69;6247781;28;20053;-78
2022/07/13 00:45:08;;;;;;;0.77;0.60;;;;;;;19.32;89.02;101849.53;6247666;28;20049;-78
2022/07/13 00:48:10;;;;;;;0.77;0.70;;;;;;;19.31;88.82;101839.84;6248149;28;20054;-77
2022/07/13 00:51:13;;;;;;;1.20;1.00;;;;;;;19.29;89.40;101821.28;6255578;28;20053;-78
2022/07/13 00:54:16;;;;;;;0.68;0.68;;;;;;;19.25;88.09;101814.47;6264223;28;20053;-77
2022/07/13 00:57:18;;;;;;;1.95;0.98;;;;;;;19.24;88.53;101818.94;6259717;28;20041;-77
2022/07/13 01:00:19;;;;;;;0.93;0.68;;;;;;;19.22;88.13;101820.88;6269370;28;20057;-77
2022/07/13 01:03:20;;;;;;;4.43;1.75;;;;;;;19.18;88.08;101814.06;6246254;28;20045;-77
2022/07/13 01:06:23;;;;;;;1.33;1.00;;;;;;;19.17;89.84;101803.53;6223516;28;20054;-77
2022/07/13 01:09:25;;;;;;;1.33;0.70;;;;;;;19.14;91.21;101801.94;6223023;28;20045;-78
2022/07/13 01:12:28;;;;;;;0.70;0.70;;;;;;;19.11;91.98;101795.97;6250113;28;20421;-78
2022/07/13 01:15:31;;;;;;;1.35;0.63;;;;;;;19.09;91.46;101808.56;6270657;28;20084;-78
2022/07/13 01:18:33;;;;;;;1.25;0.93;;;;;;;19.08;90.86;101813.03;6272589;28;20041;-78
2022/07/13 01:21:38;;;;;;;0.90;0.70;;;;;;;19.08;89.64;101809.53;6271947;28;20045;-78
2022/07/13 01:24:41;;;;;;;1.08;0.82;;;;;;;19.05;89.03;101812.41;6272649;28;20072;-78
2022/07/13 01:27:43;;;;;;;1.25;0.70;;;;;;;19.01;89.46;101809.97;6272420;28;20052;-77
2022/07/13 01:30:44;;;;;;;0.80;0.45;;;;;;;19.00;90.67;101810.94;6272517;28;20056;-77
2022/07/13 01:33:46;;;;;;;0.82;0.70;;;;;;;19.01;90.51;101809.09;6252772;28;20057;-77
2022/07/13 01:36:47;;;;;;;0.88;0.70;;;;;;;19.01;90.93;101806.44;6227258;28;20387;-78
2022/07/13 01:39:50;;;;;;;0.68;0.68;;;;;;;19.02;91.80;101797.47;6227139;28;20057;-78
2022/07/13 01:42:52;;;;;;;0.80;0.70;;;;;;;19.00;92.42;101792.28;6228124;28;20053;-77
2022/07/13 01:45:54;;;;;;;1.55;1.00;;;;;;;18.99;91.75;101784.41;6227089;28;20057;-78
2022/07/13 01:48:55;;;;;;;0.93;0.80;;;;;;;18.97;91.48;101787.16;6226476;28;20476;-77
2022/07/13 01:51:58;;;;;;;0.93;0.82;;;;;;;18.99;90.72;101781.75;6227213;28;20057;-77
2022/07/13 01:55:00;;;;;;;1.40;0.98;;;;;;;18.97;90.22;101789.81;6226911;28;20053;-78
2022/07/13 01:58:02;;;;;;;2.47;1.35;;;;;;;18.99;89.88;101789.72;6227499;28;20055;-76
2022/07/13 02:01:03;;;;;;;0.55;0.55;;;;;;;18.98;89.83;101780.00;6226584;28;20050;-78
2022/07/13 02:04:05;;;;;;;1.60;0.65;;;;;;;18.95;89.84;101782.91;6228024;28;20061;-77
2022/07/13 02:07:06;;;;;;;0.60;0.50;;;;;;;18.95;90.11;101783.78;6226531;28;20045;-77
2022/07/13 02:10:11;;;;;;;1.02;0.93;;;;;;;18.96;89.77;101769.47;6226797;28;20695;-78
2022/07/13 02:13:13;;;;;;;1.33;0.60;;;;;;;18.99;89.10;101774.59;6226764;28;20049;-77
2022/07/13 02:16:16;;;;;;;0.98;0.70;;;;;;;19.03;88.84;101772.56;6228922;28;20053;-78
2022/07/13 02:19:18;;;;;;;0.82;0.70;;;;;;;18.99;89.02;101773.75;6251069;28;20533;-78
2022/07/13 02:22:20;;;;;;;0.70;0.70;;;;;;;18.97;89.40;101776.50;6250578;28;20049;-78
2022/07/13 02:25:23;;;;;;;1.00;0.60;;;;;;;18.97;89.55;101765.84;6251086;28;20049;-77
2022/07/13 02:28:24;;;;;;;0.63;0.60;;;;;;;18.96;89.70;101764.16;6250771;28;20042;-78
2022/07/13 02:31:25;;;;;;;0.77;0.70;;;;;;;18.96;90.09;101774.81;6250654;28;20057;-78
2022/07/13 02:34:28;;;;;;;0.93;0.52;;;;;;;18.95;90.23;101762.47;6242267;28;20421;-77
2022/07/13 02:37:29;;;;;;;0.60;0.57;;;;;;;18.96;90.01;101757.97;6226670;28;20046;-78
2022/07/13 02:40:33;;;;;;;0.85;0.60;;;;;;;18.94;90.00;101755.44;6226258;28;20046;-77
2022/07/13 02:43:35;;;;;;;0.50;0.50;;;;;;;18.94;90.32;101747.44;6225837;28;20189;-78
2022/07/13 02:46:36;;;;;;;1.00;0.65;;;;;;;18.93;90.70;101744.88;6225532;28;20054;-78
2022/07/13 02:49:37;;;;;;;0.60;0.57;;;;;;;18.94;91.66;101741.22;6231419;28;20049;-77
2022/07/13 02:52:39;;;;;;;0.93;0.77;;;;;;;18.95;91.76;101742.97;6266720;28;20049;-78
2022/07/13 02:55:41;;;;;;;0.63;0.63;;;;;;;18.95;91.42;101733.16;6258853;28;20048;-76
2022/07/13 02:58:43;;;;;;;0.65;0.63;;;;;;;18.98;90.71;101724.06;6274918;28;20408;-78
2022/07/13 03:01:44;;;;;;;1.42;0.68;;;;;;;18.95;90.78;101711.84;6260334;28;20053;-76
2022/07/13 03:04:46;;;;;;;0.80;0.70;;;;;;;18.94;91.11;101717.25;6274994;28;20052;-78
2022/07/13 03:07:47;;;;;;;1.15;0.77;;;;;;;18.92;91.35;101712.06;6274570;28;20079;-78
2022/07/13 03:10:50;;;;;;;0.60;0.60;;;;;;;18.95;90.94;101703.00;6248138;28;20050;-77
2022/07/13 03:13:51;;;;;;;1.23;0.80;;;;;;;18.95;91.81;101703.84;6232831;28;20053;-77
2022/07/13 03:16:52;;;;;;;1.17;0.60;;;;;;;18.97;91.86;101699.25;6238451;28;20049;-77
2022/07/13 03:19:54;;;;;;;0.93;0.80;;;;;;;18.97;92.72;101703.72;6236605;28;20060;-78
2022/07/13 03:22:55;;;;;;;1.00;1.00;;;;;;;18.97;92.89;101701.06;6235024;28;20061;-78
2022/07/13 03:25:58;;;;;;;2.08;1.00;;;;;;;18.96;92.44;101694.88;6234019;28;20064;-76
2022/07/13 03:28:59;;;;;;;0.52;0.50;;;;;;;18.94;92.51;101699.50;6224973;28;20056;-78
2022/07/13 03:32:00;;;;;;;0.47;0.47;;;;;;;18.95;92.08;101692.34;6224844;28;20054;-78
2022/07/13 03:35:02;;;;;;;1.45;0.85;;;;;;;18.93;92.52;101691.59;6225121;28;20050;-77
2022/07/13 03:38:03;;;;;;;1.50;0.77;;;;;;;18.89;92.43;101692.78;6225037;28;20136;-78
2022/07/13 03:41:06;;;;;;;0.88;0.47;;;;;;;18.87;92.62;101697.38;6224875;28;20057;-78
2022/07/13 03:44:07;;;;;;;0.65;0.65;;;;;;;18.89;92.88;101696.28;6224366;28;20057;-77
2022/07/13 03:47:09;;;;;;;2.63;0.88;;;;;;;18.90;93.08;101690.03;6224547;28;20050;-78
2022/07/13 03:50:10;;;;;;;1.02;0.70;;;;;;;18.91;93.24;101674.88;6224617;28;20429;-77
2022/07/13 03:53:12;;;;;;;0.70;0.68;;;;;;;18.93;93.77;101665.78;6224395;28;20049;-77
2022/07/13 03:56:15;;;;;;;0.63;0.57;;;;;;;18.92;92.97;101680.09;6223986;28;20049;-78
2022/07/13 03:59:16;;;;;;;0.85;0.75;;;;;;;18.94;92.97;101675.53;6225630;28;20046;-76
2022/07/13 04:02:17;;;;;;;1.38;0.55;;;;;;;18.94;92.95;101674.63;6223907;28;20057;-77
2022/07/13 04:05:18;;;;;;;1.17;0.63;;;;;;;18.96;92.71;101680.72;6224357;28;20049;-78
2022/07/13 04:08:20;;;;;;;0.93;0.60;;;;;;;18.99;92.12;101685.84;6224269;28;20045;-77
2022/07/13 04:11:22;;;;;;;0.93;0.82;;;;;;;18.97;92.77;101683.25;6224084;28;20050;-78
2022/07/13 04:14:24;;;;;;;1.10;0.57;;;;;;;18.98;93.59;101681.44;6224243;28;20053;-78
2022/07/13 04:17:25;;;;;;;1.08;0.73;;;;;;;19.00;93.00;101683.03;6224059;28;20065;-78
2022/07/13 04:20:26;;;;;;;1.27;0.77;;;;;;;19.05;92.58;101692.50;6224680;28;20065;-76
2022/07/13 04:23:29;;;;;;;1.83;1.00;;;;;;;19.06;92.73;101678.22;6224024;28;20057;-78
2022/07/13 04:26:32;;;;;;;0.77;0.77;;;;;;;19.08;92.76;101678.97;6224144;28;20486;-76
2022/07/13 04:29:33;;;;;;;0.60;0.60;;;;;;;19.08;92.92;101671.81;6225056;28;20046;-77
2022/07/13 04:32:35;;;;;;;0.70;0.70;;;;;;;19.09;92.96;101654.88;6223666;28;20046;-78
2022/07/13 04:35:36;;;;;;;1.08;0.68;;;;;;;19.11;92.85;101641.41;6224232;28;20489;-78
2022/07/13 04:38:37;;;;;;;0.70;0.60;;;;;;;19.12;92.75;101649.31;6223749;28;20046;-76
2022/07/13 04:41:40;;;;;;;0.40;0.40;;;;;;;19.15;92.36;101653.56;6223510;28;20062;-78
2022/07/13 04:44:41;;;;;;;2.13;0.70;;;;;;;19.20;91.33;101656.72;6223788;28;20057;-76
2022/07/13 04:47:43;;;;;;;1.17;0.70;;;;;;;19.19;92.16;101655.88;6223781;28;20046;-78
2022/07/13 04:50:44;;;;;;;0.50;0.50;;;;;;;19.20;92.65;101667.38;6238953;28;20041;-79
2022/07/13 04:53:46;;;;;;;0.70;0.60;;;;;;;19.22;91.73;101660.13;6265405;28;20041;-80
2022/07/13 04:56:49;;;;;;;0.70;0.50;;;;;;;19.31;90.14;101658.59;6273692;28;20096;-79
2022/07/13 04:59:51;;;;;;;0.60;0.60;;;;;;;19.39;88.97;101656.19;6262471;28;20416;-79
2022/07/13 05:02:52;;;;;;;0.85;0.70;;;;;;;19.41;89.81;101654.25;6240408;28;20417;-79
2022/07/13 05:05:53;;;;;;;2.55;0.68;;;;;;;19.39;91.13;101650.84;6225826;28;20061;-79
2022/07/13 05:08:55;;;;;;;1.50;0.60;;;;;;;19.37;92.34;101645.63;6229543;28;20052;-79
2022/07/13 05:11:58;;;;;;;1.05;0.80;;;;;;;19.37;93.22;101645.63;6255085;28;20489;-80
2022/07/13 05:14:59;;;;;;;0.73;0.57;;;;;;;19.36;93.73;101643.94;6258074;28;20049;-80
2022/07/13 05:18:00;;;;;;;0.70;0.63;;;;;;;19.38;94.14;101644.66;6253337;28;20048;-80
2022/07/13 05:21:02;;;;;;;0.73;0.55;;;;;;;19.40;94.21;101642.75;6253318;28;20489;-78
2022/07/13 05:24:03;;;;;;;1.95;1.02;;;;;;;19.43;94.12;101650.50;6252771;28;20053;-79
2022/07/13 05:27:06;;;;;;;0.82;0.60;;;;;;;19.52;90.17;101654.28;6253515;28;20045;-80
2022/07/13 05:30:09;;;;;;;1.75;1.02;;;;;;;19.62;88.70;101644.66;6252029;28;20056;-79
2022/07/13 05:33:10;;;;;;;0.73;0.63;;;;;;;19.72;88.36;101634.13;6253307;28;20068;-80
2022/07/13 05:36:11;;;;;;;1.33;0.68;;;;;;;19.76;89.80;101631.09;6253106;28;20053;-79
2022/07/13 05:39:13;;;;;;;2.17;1.00;;;;;;;19.79;89.71;101639.81;6252833;28;20049;-79
2022/07/13 05:42:16;;;;;;;0.98;0.80;;;;;;;19.87;88.05;101637.41;6252665;28;20056;-79
2022/07/13 05:45:17;;;;;;;1.73;0.85;;;;;;;20.00;85.55;101646.16;6253235;28;20136;-79
2022/07/13 05:48:18;;;;;;;1.30;1.00;;;;;;;20.10;84.77;101647.09;6252619;28;20516;-79
2022/07/13 05:51:20;;;;;;;1.45;0.80;;;;;;;20.19;84.19;101642.88;6252235;28;20068;-79
2022/07/13 05:54:21;;;;;;;1.35;0.70;;;;;;;20.22;84.58;101634.63;6252701;28;20061;-79
2022/07/13 05:57:24;;;;;;;0.95;0.60;;;;;;;20.27;84.28;101633.28;6251993;28;20425;-79
2022/07/13 06:00:25;;;;;;;1.02;0.93;;;;;;;20.32;83.44;101621.38;6250265;28;20045;-79
2022/07/13 06:03:26;;;;;;;1.85;0.80;;;;;;;20.35;84.09;101621.09;6252446;28;20057;-79
2022/07/13 06:06:28;;;;;;;0.90;0.70;;;;;;;20.42;83.53;101628.50;6252387;28;20424;-80
2022/07/13 06:09:29;;;;;;;1.55;1.25;;;;;;;20.46;82.98;101619.28;6251627;28;20050;-79
2022/07/13 06:12:32;;;;;;;1.35;1.00;;;;;;;20.51;81.21;101625.13;6252235;28;20052;-81
2022/07/13 06:15:33;;;;;;;1.70;1.00;;;;;;;20.63;80.47;101609.94;6251991;28;20045;-79
2022/07/13 06:18:35;;;;;;;3.97;1.15;;;;;;;20.71;79.61;101609.28;6251992;28;20417;-79
2022/07/13 06:21:36;;;;;;;3.47;1.00;;;;;;;20.77;79.88;101614.13;6250941;28;20144;-80
2022/07/13 06:24:38;;;;;;;1.55;1.10;;;;;;;20.83;80.54;101613.63;6237137;28;20429;-79
2022/07/13 06:27:40;;;;;;;6.68;1.10;;;;;;;20.93;77.88;101605.69;6248493;28;20202;-78
2022/07/13 06:30:42;;;;;;;2.15;1.08;;;;;;;20.98;78.32;101601.69;6244143;28;20057;-79
2022/07/13 06:33:43;;;;;;;1.25;1.02;;;;;;;21.07;77.25;101609.88;6238425;28;20042;-79
2022/07/13 06:36:45;;;;;;;1.38;1.13;;;;;;;21.20;74.39;101606.03;6237529;28;20045;-80
2022/07/13 06:39:46;;;;;;;1.45;0.77;;;;;;;21.31;74.44;101606.97;6243273;28;20048;-78
2022/07/13 06:42:49;;;;;;;1.23;1.10;;;;;;;21.43;72.91;101613.97;6250386;28;20504;-80
2022/07/13 06:45:50;;;;;;;2.70;1.02;;;;;;;21.48;72.05;101603.72;6250927;28;20049;-79
2022/07/13 06:48:51;;;;;;;1.40;0.93;;;;;;;21.52;74.03;101605.16;6250225;28;20413;-79
2022/07/13 06:51:53;;;;;;;1.05;0.80;;;;;;;21.56;72.74;101603.91;6258846;28;20052;-78
2022/07/13 06:54:54;;;;;;;1.67;1.05;;;;;;;21.58;74.05;101607.31;6258359;28;20049;-79
2022/07/13 06:57:57;;;;;;;0.55;0.55;;;;;;;21.60;71.82;101596.47;6258125;28;20056;-79
2022/07/13 07:00:59;;;;;;;1.27;0.70;;;;;;;21.65;72.11;101591.56;6257974;28;20057;-79
2022/07/13 07:04:00;;;;;;;1.50;0.90;;;;;;;21.72;71.39;101595.41;6230936;28;20719;-79
2022/07/13 07:07:02;;;;;;;1.73;0.80;;;;;;;21.77;70.45;101577.97;6274939;28;20049;-80
2022/07/13 07:10:04;;;;;;;2.58;1.00;;;;;;;21.84;71.28;101582.78;6274409;28;20362;-79
2022/07/13 07:13:06;;;;;;;1.98;1.23;;;;;;;21.93;70.23;101573.94;6274540;28;20382;-79
2022/07/13 07:16:08;;;;;;;1.40;0.80;;;;;;;21.99;69.68;101570.75;6274138;28;20056;-79
2022/07/13 07:19:11;;;;;;;3.53;0.80;;;;;;;22.04;68.22;101574.69;6274211;28;20053;-78
2022/07/13 07:22:13;;;;;;;0.95;0.85;;;;;;;22.07;68.58;101570.88;6263138;28;20053;-79
2022/07/13 07:25:15;;;;;;;0.93;0.75;;;;;;;22.10;66.26;101564.44;6236147;28;20045;-79
2022/07/13 07:28:18;;;;;;;1.27;0.70;;;;;;;22.19;64.20;101566.31;6224355;28;20046;-79
2022/07/13 07:31:19;;;;;;;2.08;1.00;;;;;;;22.24;64.24;101558.72;6225875;28;20053;-79
2022/07/13 07:34:21;;;;;;;8.70;4.72;;;;;;;22.24;65.56;101553.34;6225510;28;20524;-81
2022/07/13 07:37:23;;;;;;;2.45;1.20;;;;;;;22.31;65.10;101554.50;6225240;28;20053;-79
2022/07/13 07:40:24;;;;;;;0.85;0.77;;;;;;;22.36;66.73;101554.09;6224993;28;20049;-80
2022/07/13 07:43:27;;;;;;;1.08;0.80;;;;;;;22.39;65.25;101554.66;6224942;28;20052;-79
2022/07/13 07:46:29;;;;;;;2.25;0.93;;;;;;;22.46;64.28;101546.91;6225437;28;20077;-79
2022/07/13 07:49:30;;;;;;;1.05;0.95;;;;;;;22.54;63.84;101539.03;6225065;28;20084;-79
2022/07/13 07:52:32;;;;;;;1.70;0.90;;;;;;;22.65;62.19;101544.22;6224994;28;20053;-79
2022/07/13 07:55:33;;;;;;;1.33;0.70;;;;;;;22.78;59.90;101546.63;6224471;28;20057;-79
2022/07/13 07:58:36;;;;;;;1.73;1.10;;;;;;;22.89;60.69;101542.94;6224585;28;20049;-79
2022/07/13 08:01:37;;;;;;;1.48;0.70;;;;;;;22.97;60.50;101543.97;6225854;28;20045;-80
2022/07/13 08:04:38;;;;;;;1.42;1.02;;;;;;;22.99;58.89;101541.16;6224819;28;20524;-78
2022/07/13 08:07:41;;;;;;;2.67;0.95;;;;;;;23.03;58.71;101538.03;6225745;28;20049;-80
2022/07/13 08:10:43;;;;;;;1.13;0.68;;;;;;;23.16;57.70;101534.19;6224774;28;20417;-79
2022/07/13 08:13:46;;;;;;;0.93;0.68;;;;;;;23.32;56.47;101528.25;6223692;28;20053;-79
2022/07/13 08:16:48;;;;;;;0.60;0.60;;;;;;;23.49;57.08;101524.81;6223556;28;20528;-79
2022/07/13 08:19:49;;;;;;;1.05;0.88;;;;;;;23.58;57.26;101531.13;6222695;28;20061;-78
2022/07/13 08:22:50;;;;;;;0.90;0.77;;;;;;;23.71;55.38;101531.63;6222904;28;20416;-77
2022/07/13 08:25:52;;;;;;;2.60;0.93;;;;;;;23.81;54.09;101524.41;6222634;28;20513;-78
2022/07/13 08:28:56;;;;;;;0.70;0.60;;;;;;;23.96;52.12;101522.06;6222834;28;20505;-77
2022/07/13 08:31:57;;;;;;;0.90;0.60;;;;;;;23.95;53.71;101512.31;6236654;28;20049;-79
2022/07/13 08:41:35;;;;;;;1.33;0.90;;;;;;;24.18;52.14;101520.81;6250843;28;20053;-80
2022/07/13 08:44:38;;;;;;;1.75;1.08;;;;;;;24.27;50.48;101512.66;6249405;28;20497;-80
2022/07/13 08:47:45;;;;;;;0.93;0.70;;;;;;;24.33;51.10;101507.69;6259240;28;20049;-77
2022/07/13 08:50:48;;;;;;;0.60;0.60;;;;;;;24.48;50.29;101498.97;6253391;28;20046;-77
2022/07/13 08:53:51;;;;;;;0.68;0.68;;;;;;;24.55;50.53;101493.81;6263963;28;20053;-78
2022/07/13 08:56:52;;;;;;;0.80;0.63;;;;;;;24.62;50.83;101496.72;6267960;28;20045;-78
2022/07/13 08:59:55;;;;;;;0.90;0.70;;;;;;;24.73;51.44;101489.25;6265040;28;20578;-78
2022/07/13 09:02:56;;;;;;;1.73;0.70;;;;;;;24.74;50.80;101488.25;6236496;28;20056;-78
2022/07/13 09:05:58;;;;;;;1.35;0.80;;;;;;;24.84;48.51;101488.16;6226592;28;20053;-78
2022/07/13 09:09:00;;;;;;;1.60;0.70;;;;;;;24.94;48.32;101488.09;6226385;28;20425;-78
2022/07/13 09:12:11;;;;;;;0.77;0.65;;;;;;;25.08;47.70;101486.69;6225633;28;20049;-77
2022/07/13 09:15:13;;;;;;;1.10;0.77;;;;;;;25.01;49.10;101484.59;6225921;28;20180;-78
2022/07/13 09:18:18;;;;;;;1.08;0.80;;;;;;;25.02;48.67;101482.72;6226451;28;20521;-77
2022/07/13 09:21:22;;;;;;;0.70;0.70;;;;;;;24.97;48.75;101469.75;6226025;28;20046;-77
2022/07/13 09:24:42;;;;;;;1.33;0.80;;;;;;;25.09;47.63;101474.94;6226057;28;20422;-77
2022/07/13 09:27:48;;;;;;;1.60;1.02;;;;;;;25.15;48.41;101475.13;6226518;28;20177;-78
2022/07/13 09:30:51;;;;;;;1.00;0.93;;;;;;;25.17;48.66;101470.44;6233067;28;20509;-78
2022/07/13 09:33:55;;;;;;;0.93;0.52;;;;;;;25.23;48.26;101466.25;6250303;28;20513;-76
2022/07/13 09:37:09;;;;;;;1.45;0.80;;;;;;;25.27;49.38;101468.47;6250426;28;20057;-77
2022/07/13 09:40:17;;;;;;;1.70;1.00;;;;;;;25.37;48.43;101464.81;6250026;28;20419;-77
2022/07/13 09:46:49;;;;;;;1.38;0.88;;;;;;;25.81;46.07;101476.31;6251234;28;20053;-78
2022/07/13 09:49:54;;;;;;;1.02;0.70;;;;;;;25.90;46.56;101461.00;6251878;28;20060;-79
2022/07/13 09:52:56;;;;;;;1.38;0.93;;;;;;;25.96;46.32;101458.50;6250973;28;20516;-79
2022/07/13 09:55:59;;;;;;;1.52;1.00;;;;;;;26.06;46.80;101456.47;6250329;28;20057;-79
2022/07/13 09:59:04;;;;;;;1.02;0.93;;;;;;;26.14;45.55;101457.53;6250204;28;20045;-77
2022/07/13 10:02:08;;;;;;;1.13;0.90;;;;;;;26.24;45.32;101453.66;6256636;28;20045;-77
2022/07/13 10:05:10;;;;;;;0.75;0.70;;;;;;;26.10;45.80;101445.38;6258152;28;20526;-77
2022/07/13 10:08:12;;;;;;;1.35;0.90;;;;;;;26.01;46.23;101444.53;6263700;28;20049;-78
2022/07/13 10:11:14;;;;;;;0.63;0.63;;;;;;;25.92;48.02;101446.34;6262060;28;20051;-76
2022/07/13 10:14:18;;;;;;;1.40;0.98;;;;;;;25.92;47.48;101451.75;6254929;28;20046;-77
2022/07/13 10:17:22;;;;;;;0.90;0.70;;;;;;;26.04;48.86;101447.75;6265895;28;20055;-78
2022/07/13 10:20:26;;;;;;;1.80;1.00;;;;;;;26.18;48.28;101438.16;6269011;28;20045;-77
2022/07/13 10:23:37;;;;;;;1.48;0.70;;;;;;;26.38;46.49;101443.22;6265847;28;20420;-78
2022/07/13 10:26:38;;;;;;;2.22;0.80;;;;;;;26.50;46.41;101445.44;6253137;28;20046;-78
2022/07/13 10:29:48;;;;;;;1.60;0.85;;;;;;;26.52;47.09;101440.72;6249152;28;20532;-77
2022/07/13 10:32:51;;;;;;;2.05;0.90;;;;;;;26.76;46.26;101437.16;6257602;28;20049;-78
2022/07/13 10:35:53;;;;;;;0.98;0.70;;;;;;;27.00;45.37;101444.38;6246598;28;20041;-77
2022/07/13 10:39:08;;;;;;;1.42;0.90;;;;;;;27.06;44.65;101437.44;6235303;28;20053;-79
2022/07/13 10:42:10;;;;;;;1.23;0.82;;;;;;;27.20;44.22;101449.38;6266124;28;20132;-79
2022/07/13 10:45:38;;;;;;;1.17;0.80;;;;;;;27.49;42.21;101433.44;6259412;28;20052;-77
2022/07/13 10:48:44;;;;;;;1.63;0.98;;;;;;;27.57;41.76;101456.88;6258834;28;20413;-78
2022/07/13 10:51:47;;;;;;;0.90;0.80;;;;;;;27.48;42.33;101431.75;6266786;22;20053;-74
2022/07/13 10:55:21;;;;;;;1.48;1.15;;;;;;;27.40;42.89;101433.66;6236940;28;20049;-74
2022/07/13 10:58:43;;;;;;;1.88;1.33;;;;;;;27.43;42.11;101427.88;6248161;28;20056;-73
2022/07/13 11:01:44;;;;;;;0.90;0.90;;;;;;;27.28;43.94;101427.78;6236479;28;20418;-75
2022/07/13 11:04:49;;;;;;;7.53;1.17;;;;;;;27.42;43.72;101416.25;6245023;28;20060;-74
2022/07/13 11:07:52;;;;;;;1.33;0.90;;;;;;;27.61;43.27;101414.13;6248437;28;20456;-74
2022/07/13 11:11:12;;;;;;;1.50;0.80;;;;;;;27.86;43.48;101417.56;6247792;28;20463;-73
2022/07/13 11:14:47;;;;;;;0.88;0.88;;;;;;;28.03;43.48;101411.03;6248028;28;20123;-73
2022/07/13 11:17:52;;;;;;;2.42;1.02;;;;;;;28.24;43.04;101419.28;6248270;28;20057;-71
2022/07/13 11:20:59;;;;;;;1.30;0.93;;;;;;;28.46;43.68;101416.78;6247930;28;20046;-75
2022/07/13 11:27:34;;;;;;;1.30;0.88;;;;;;;28.96;40.62;101409.88;6247513;28;20049;-74
2022/07/13 11:30:37;;;;;;;1.10;0.98;;;;;;;29.11;40.82;101413.41;6247743;28;20056;-72
2022/07/13 11:33:38;;;;;;;2.38;1.10;;;;;;;28.98;40.33;101411.41;6247706;28;20748;-71
2022/07/13 11:36:42;;;;;;;0.73;0.73;;;;;;;29.22;39.48;101406.72;6247701;28;20049;-72
2022/07/13 11:39:47;;;;;;;0.88;0.80;;;;;;;29.28;40.48;101409.50;6247371;28;20170;-72
2022/07/13 11:42:51;;;;;;;1.05;1.00;;;;;;;28.97;40.49;101409.69;6247612;28;20048;-70
2022/07/13 11:45:53;;;;;;;2.35;1.20;;;;;;;28.90;41.06;101403.34;6247510;28;20663;-72
2022/07/13 11:49:02;;;;;;;1.85;0.90;;;;;;;29.00;40.84;101398.50;6246791;28;20130;-72
2022/07/13 11:52:04;;;;;;;1.20;1.00;;;;;;;29.39;40.87;101419.03;6246440;28;20424;-70
2022/07/13 11:55:07;;;;;;;1.20;1.00;;;;;;;29.58;40.28;101404.06;6247340;28;20421;-71
2022/07/13 11:58:21;;;;;;;1.23;0.93;;;;;;;28.85;40.36;101400.34;6242666;28;20041;-71
2022/07/13 12:01:23;;;;;;;6.90;2.33;;;;;;;28.38;42.61;101393.34;6246959;28;20504;-71
2022/07/13 12:04:25;;;;;;;2.53;1.00;;;;;;;29.10;42.73;101398.22;6246830;28;20053;-71
2022/07/13 12:07:30;;;;;;;1.98;1.10;;;;;;;29.88;40.76;101396.66;6243315;28;20073;-71
2022/07/13 12:10:34;;;;;;;1.05;0.90;;;;;;;29.61;40.30;101397.41;6246713;28;20045;-73
2022/07/13 12:13:37;;;;;;;1.08;0.80;;;;;;;29.62;40.54;101393.69;6246707;28;20045;-71
2022/07/13 12:16:39;;;;;;;1.63;1.08;;;;;;;29.98;40.77;101383.66;6246412;28;20061;-72
2022/07/13 12:19:40;;;;;;;1.45;1.00;;;;;;;30.41;39.04;101386.34;6242874;28;20057;-71
2022/07/13 12:22:49;;;;;;;0.93;0.80;;;;;;;30.63;38.67;101381.72;6245679;28;20413;-69
2022/07/13 12:26:06;;;;;;;1.15;0.90;;;;;;;30.76;38.60;101378.28;6246032;28;20146;-69
2022/07/13 12:29:07;;;;;;;0.65;0.60;;;;;;;30.93;38.96;101390.50;6222298;28;20053;-70
2022/07/13 12:32:08;;;;;;;0.77;0.77;;;;;;;30.63;38.26;101392.56;6229515;28;20045;-70
2022/07/13 12:35:15;;;;;;;0.60;0.60;;;;;;;30.53;38.55;101397.50;6246204;28;20520;-73
2022/07/13 12:38:18;;;;;;;1.30;1.13;;;;;;;30.65;37.19;101389.63;6246309;28;20064;-72
2022/07/13 12:41:26;;;;;;;1.02;0.77;;;;;;;30.78;37.00;101381.63;6244567;28;20060;-71
2022/07/13 12:44:30;;;;;;;6.40;1.63;;;;;;;30.58;39.63;101393.16;6246070;28;20420;-71
2022/07/13 12:47:31;;;;;;;0.88;0.75;;;;;;;30.82;36.29;101378.31;6246627;28;20060;-72
2022/07/13 12:50:33;;;;;;;0.73;0.70;;;;;;;31.09;36.93;101378.44;6245982;28;20053;-72
2022/07/13 12:53:49;;;;;;;0.60;0.60;;;;;;;31.27;35.85;101376.06;6246628;28;20053;-70
2022/07/13 12:56:52;;;;;;;0.82;0.70;;;;;;;31.70;36.18;101370.31;6237357;28;20050;-72
2022/07/13 12:59:59;;;;;;;1.10;1.00;;;;;;;31.86;35.19;101374.56;6237994;28;20560;-70
2022/07/13 13:03:00;;;;;;;1.75;1.20;;;;;;;31.24;37.41;101389.16;6245842;28;20057;-71
2022/07/13 13:06:02;;;;;;;1.00;0.90;;;;;;;30.38;38.36;101383.16;6246126;28;20056;-71
2022/07/13 13:09:05;;;;;;;1.63;1.10;;;;;;;30.26;39.27;101380.19;6245355;28;20481;-70
2022/07/13 13:12:07;;;;;;;2.40;1.13;;;;;;;30.20;39.36;101383.66;6243746;28;20117;-71
2022/07/13 13:15:09;;;;;;;2.13;1.23;;;;;;;30.03;39.77;101383.91;6245954;28;20053;-70
2022/07/13 13:18:10;;;;;;;1.83;1.33;;;;;;;30.11;39.93;101387.50;6245786;28;20421;-70
2022/07/13 13:21:12;;;;;;;2.95;1.48;;;;;;;30.44;39.25;101382.41;6243274;28;20046;-70
2022/07/13 13:24:14;;;;;;;1.70;1.25;;;;;;;30.53;39.34;101395.63;6245540;28;20049;-71
2022/07/13 13:27:16;;;;;;;2.13;1.60;;;;;;;30.69;37.81;101388.19;6246993;28;20548;-71
2022/07/13 13:33:36;;;;;;;2.50;1.25;;;;;;;29.86;37.66;101387.06;6249731;28;20085;-73
2022/07/13 13:36:37;;;;;;;1.77;1.15;;;;;;;29.56;36.66;101388.00;6249879;28;20068;-72
2022/07/13 13:39:40;;;;;;;2.72;1.38;;;;;;;29.36;38.01;101380.66;6250444;28;20050;-71
2022/07/13 13:42:41;;;;;;;1.55;1.20;;;;;;;29.89;36.69;101373.97;6250130;28;20053;-71
2022/07/13 13:45:42;;;;;;;1.67;1.05;;;;;;;30.00;36.23;101375.31;6250277;28;20057;-71
2022/07/13 13:48:44;;;;;;;4.68;1.35;;;;;;;30.48;37.00;101379.09;6250380;28;20061;-71
2022/07/13 13:51:45;;;;;;;1.73;1.20;;;;;;;30.80;36.05;101383.09;6249759;28;20057;-72
2022/07/13 13:54:48;;;;;;;2.35;1.50;;;;;;;30.83;35.65;101382.69;6250042;28;20509;-71
2022/07/13 13:57:49;;;;;;;1.42;1.20;;;;;;;31.14;36.88;101375.13;6249403;28;20053;-71
2022/07/13 14:00:50;;;;;;;2.45;1.40;;;;;;;30.65;36.47;101379.63;6250007;28;20535;-71
2022/07/13 14:03:52;;;;;;;1.52;1.40;;;;;;;29.89;37.14;101370.41;6249514;28;20179;-71
2022/07/13 14:06:53;;;;;;;1.52;1.27;;;;;;;29.63;38.06;101377.25;6249909;28;20056;-71
2022/07/13 14:09:56;;;;;;;1.63;1.30;;;;;;;29.34;39.05;101378.09;6249212;28;20691;-71
2022/07/13 14:12:57;;;;;;;3.42;1.40;;;;;;;29.14;40.90;101379.75;6249707;28;20057;-71
2022/07/13 14:15:59;;;;;;;1.73;1.40;;;;;;;28.89;42.66;101385.41;6249253;28;20053;-71
2022/07/13 14:19:00;;;;;;;3.00;1.70;;;;;;;29.26;43.41;101386.38;6249497;28;20049;-71
2022/07/13 14:22:01;;;;;;;1.42;1.15;;;;;;;28.90;42.60;101383.56;6249264;28;20049;-73
2022/07/13 14:25:05;;;;;;;4.05;2.08;;;;;;;28.70;43.69;101384.09;6247132;28;20045;-70
2022/07/13 14:28:06;;;;;;;2.05;1.27;;;;;;;29.06;44.50;101391.50;6249000;28;20056;-70